createdAt,value
2023-03-06T00:01:35.531Z,-2.68
2023-03-06T00:04:37.466Z,-2.67
2023-03-06T00:07:39.538Z,-2.72
2023-03-06T00:10:41.485Z,-2.74
2023-03-06T00:13:43.342Z,-2.76
2023-03-06T00:16:45.219Z,-2.81
2023-03-06T00:19:47.251Z,-2.79
2023-03-06T00:22:49.717Z,-2.86
2023-03-06T00:25:51.952Z,-2.93
2023-03-06T00:28:53.858Z,-2.92
2023-03-06T00:31:55.873Z,-2.89
2023-03-06T00:34:57.879Z,-2.90
2023-03-06T00:37:59.950Z,-2.92
2023-03-06T00:41:10.463Z,-2.94
2023-03-06T00:44:12.387Z,-2.95
2023-03-06T00:47:17.376Z,-2.95
2023-03-06T00:50:19.358Z,-2.97
2023-03-06T00:53:21.305Z,-2.94
2023-03-06T00:56:24.138Z,-2.92
2023-03-06T00:59:27.695Z,-2.93
2023-03-06T01:02:29.641Z,-2.89
2023-03-06T01:05:34.795Z,-2.90
2023-03-06T01:08:40.689Z,-2.90
2023-03-06T01:11:42.627Z,-2.91
2023-03-06T01:14:48.156Z,-2.92
2023-03-06T01:17:57.177Z,-2.93
2023-03-06T01:21:01.459Z,-2.91
2023-03-06T01:24:06.614Z,-2.92
2023-03-06T01:27:08.573Z,-2.92
2023-03-06T01:30:11.628Z,-2.91
2023-03-06T01:33:14.766Z,-2.93
2023-03-06T01:36:19.077Z,-2.92
2023-03-06T01:39:21.016Z,-2.96
2023-03-06T01:42:23.006Z,-2.98
2023-03-06T01:45:24.865Z,-3.01
2023-03-06T01:48:26.898Z,-3.01
2023-03-06T01:51:37.780Z,-3.02
2023-03-06T01:54:46.749Z,-3.04
2023-03-06T01:57:53.324Z,-3.04
2023-03-06T02:00:55.363Z,-3.07
2023-03-06T02:04:01.577Z,-3.08
2023-03-06T02:07:05.001Z,-3.11
2023-03-06T02:10:10.215Z,-3.11
2023-03-06T02:13:12.146Z,-3.11
2023-03-06T02:16:14.833Z,-3.11
2023-03-06T02:19:43.412Z,-3.15
2023-03-06T02:23:03.968Z,-3.15
2023-03-06T02:26:08.539Z,-3.17
2023-03-06T02:29:10.892Z,-3.17
2023-03-06T02:32:12.930Z,-3.19
2023-03-06T02:35:38.671Z,-3.22
2023-03-06T02:38:48.560Z,-3.26
2023-03-06T02:41:51.080Z,-3.27
2023-03-06T02:44:57.267Z,-3.31
2023-03-06T02:48:00.499Z,-3.31
2023-03-06T02:51:03.771Z,-3.34
2023-03-06T02:54:07.374Z,-3.40
2023-03-06T02:57:09.351Z,-3.37
2023-03-06T03:00:12.293Z,-3.38
2023-03-06T03:03:17.019Z,-3.36
2023-03-06T03:06:18.886Z,-3.40
2023-03-06T03:09:21.561Z,-3.42
2023-03-06T03:12:23.758Z,-3.40
2023-03-06T03:15:26.295Z,-3.44
2023-03-06T03:18:29.069Z,-3.42
2023-03-06T03:21:31.205Z,-3.42
2023-03-06T03:24:33.697Z,-3.46
2023-03-06T03:27:35.965Z,-3.46
2023-03-06T03:30:41.108Z,-3.48
2023-03-06T03:33:44.207Z,-3.48
2023-03-06T03:36:49.838Z,-3.47
2023-03-06T03:39:52.018Z,-3.49
2023-03-06T03:42:54.057Z,-3.51
2023-03-06T03:45:55.877Z,-3.50
2023-03-06T03:49:01.986Z,-3.50
2023-03-06T03:52:04.300Z,-3.48
2023-03-06T03:55:09.354Z,-3.49
2023-03-06T03:58:13.595Z,-3.52
2023-03-06T04:01:15.974Z,-3.53
2023-03-06T04:04:21.258Z,-3.52
2023-03-06T04:07:23.872Z,-3.59
2023-03-06T04:10:25.766Z,-3.55
2023-03-06T04:13:30.129Z,-3.59
2023-03-06T04:16:37.072Z,-3.62
2023-03-06T04:19:39.156Z,-3.57
2023-03-06T04:22:42.296Z,-3.56
2023-03-06T04:25:46.034Z,-3.56
2023-03-06T04:28:48.546Z,-3.58
2023-03-06T04:31:50.971Z,-3.52
2023-03-06T04:34:52.850Z,-3.57
2023-03-06T04:37:55.532Z,-3.50
2023-03-06T04:40:58.987Z,-3.46
2023-03-06T04:44:01.123Z,-3.41
2023-03-06T04:47:03.186Z,-3.40
2023-03-06T04:50:05.936Z,-3.35
2023-03-06T04:53:08.787Z,-3.25
2023-03-06T04:56:10.763Z,-3.03
2023-03-06T04:59:12.672Z,-2.81
2023-03-06T05:02:14.566Z,-2.72
2023-03-06T05:05:18.865Z,-2.63
2023-03-06T05:08:20.966Z,-2.55
2023-03-06T05:11:22.910Z,-2.47
2023-03-06T05:14:24.862Z,-2.34
2023-03-06T05:17:26.829Z,-2.21
2023-03-06T05:20:30.929Z,-2.05
2023-03-06T05:23:35.496Z,-1.87
2023-03-06T05:26:37.410Z,-1.73
2023-03-06T05:29:41.984Z,-1.60
2023-03-06T05:32:47.186Z,-1.44
2023-03-06T05:35:51.569Z,-1.40
2023-03-06T05:38:53.549Z,-1.40
2023-03-06T05:41:55.487Z,-1.35
2023-03-06T05:44:57.311Z,-1.29
2023-03-06T05:47:59.179Z,-1.26
2023-03-06T05:51:02.397Z,-1.24
2023-03-06T05:54:04.329Z,-1.17
2023-03-06T05:57:06.426Z,-1.12
2023-03-06T06:00:09.289Z,-1.04
2023-03-06T06:03:20.565Z,-0.92
2023-03-06T06:06:22.378Z,-0.87
2023-03-06T06:09:25.503Z,-0.78
2023-03-06T06:12:27.862Z,-0.72
2023-03-06T06:15:33.007Z,-0.75
2023-03-06T06:18:35.030Z,-0.63
2023-03-06T06:21:40.349Z,-0.53
2023-03-06T06:24:42.322Z,-0.49
2023-03-06T06:27:44.326Z,-0.36
2023-03-06T06:30:46.229Z,-0.35
2023-03-06T06:33:48.248Z,-0.28
2023-03-06T06:36:53.425Z,-0.23
2023-03-06T06:39:55.665Z,-0.25
2023-03-06T06:42:57.519Z,-0.14
2023-03-06T06:46:16.455Z,-0.02
2023-03-06T06:49:21.389Z,0.16
2023-03-06T06:52:24.756Z,0.22
2023-03-06T06:55:27.212Z,0.25
2023-03-06T06:58:29.052Z,0.34
2023-03-06T07:01:31.063Z,0.31
2023-03-06T07:04:33.212Z,0.39
2023-03-06T07:07:40.572Z,0.50
2023-03-06T07:10:42.492Z,0.62
2023-03-06T07:13:47.060Z,0.63
2023-03-06T07:16:49.028Z,0.57
2023-03-06T07:19:53.417Z,0.75
2023-03-06T07:22:56.591Z,0.80
2023-03-06T07:25:58.582Z,0.87
2023-03-06T07:29:00.568Z,0.90
2023-03-06T07:32:05.143Z,0.87
2023-03-06T07:35:19.661Z,0.90
2023-03-06T07:38:22.310Z,0.92
2023-03-06T07:41:24.167Z,1.03
2023-03-06T07:44:27.831Z,1.11
2023-03-06T07:47:29.746Z,1.12
2023-03-06T07:50:32.952Z,1.13
2023-03-06T07:53:35.500Z,1.24
2023-03-06T07:56:37.422Z,1.17
2023-03-06T07:59:39.365Z,1.17
2023-03-06T08:03:41.967Z,1.08
2023-03-06T08:06:43.820Z,1.01
2023-03-06T08:09:48.184Z,1.06
2023-03-06T08:12:50.029Z,1.17
2023-03-06T08:15:51.910Z,1.22
2023-03-06T08:18:54.076Z,1.31
2023-03-06T08:21:56.032Z,1.40
2023-03-06T08:24:57.911Z,1.48
2023-03-06T08:28:00.869Z,1.43
2023-03-06T08:31:13.037Z,1.42
2023-03-06T08:34:20.084Z,1.52
2023-03-06T08:37:24.111Z,1.39
2023-03-06T08:40:30.454Z,1.40
2023-03-06T08:43:32.368Z,1.47
2023-03-06T08:46:35.807Z,1.53
2023-03-06T08:49:39.717Z,1.45
2023-03-06T08:52:41.596Z,1.34
2023-03-06T08:55:43.603Z,1.47
2023-03-06T08:58:46.061Z,1.27
2023-03-06T09:01:48.050Z,1.40
2023-03-06T09:04:50.059Z,1.41
2023-03-06T09:07:52.110Z,1.45
2023-03-06T09:10:55.107Z,1.44
2023-03-06T09:13:59.798Z,1.45
2023-03-06T09:17:01.765Z,1.38
2023-03-06T09:20:06.098Z,1.41
2023-03-06T09:23:12.201Z,1.34
2023-03-06T09:26:14.403Z,1.36
2023-03-06T09:29:17.212Z,1.21
2023-03-06T09:32:19.382Z,1.21
2023-03-06T09:35:21.396Z,1.33
2023-03-06T09:38:27.837Z,1.37
2023-03-06T09:41:33.162Z,1.45
2023-03-06T09:44:38.687Z,1.54
2023-03-06T09:48:02.124Z,1.69
2023-03-06T09:51:13.912Z,1.71
2023-03-06T09:54:16.432Z,1.88
2023-03-06T09:57:31.999Z,1.71
2023-03-06T10:00:46.792Z,1.64
2023-03-06T10:04:03.710Z,1.91
2023-03-06T10:07:15.739Z,2.03
2023-03-06T10:10:42.808Z,2.18
2023-03-06T10:13:51.964Z,2.17
2023-03-06T10:16:54.712Z,2.38
2023-03-06T10:19:59.045Z,2.56
2023-03-06T10:23:23.695Z,2.66
2023-03-06T10:26:36.376Z,2.73
2023-03-06T10:30:06.876Z,2.75
2023-03-06T10:33:12.592Z,2.75
2023-03-06T10:36:19.372Z,2.82
2023-03-06T10:39:22.988Z,2.96
2023-03-06T10:42:25.069Z,3.02
2023-03-06T10:45:35.205Z,3.05
2023-03-06T10:48:42.877Z,3.06
2023-03-06T10:52:03.239Z,3.19
2023-03-06T10:55:26.011Z,3.10
2023-03-06T10:58:30.662Z,3.15
2023-03-06T11:01:32.849Z,3.18
2023-03-06T11:04:36.610Z,3.16
2023-03-06T11:07:54.254Z,3.02
2023-03-06T11:11:09.264Z,2.77
2023-03-06T11:14:22.965Z,2.76
2023-03-06T11:17:32.176Z,2.58
2023-03-06T11:20:52.622Z,2.57
2023-03-06T11:23:58.963Z,2.62
2023-03-06T11:27:09.361Z,2.60
2023-03-06T11:30:27.041Z,2.70
2023-03-06T11:33:46.515Z,2.77
2023-03-06T11:36:56.576Z,2.76
2023-03-06T11:40:10.632Z,2.65
2023-03-06T11:43:31.871Z,2.58
2023-03-06T11:46:48.771Z,2.47
2023-03-06T11:50:20.471Z,2.27
2023-03-06T11:53:44.402Z,2.22
2023-03-06T11:56:59.962Z,2.12
2023-03-06T12:00:05.084Z,2.22
2023-03-06T12:03:25.988Z,2.41
2023-03-06T12:06:51.627Z,2.45
2023-03-06T12:10:32.770Z,2.58
2023-03-06T12:14:10.262Z,2.44
2023-03-06T12:17:23.966Z,2.25
2023-03-06T12:20:40.175Z,2.22
2023-03-06T12:24:16.237Z,2.19
2023-03-06T12:27:33.286Z,2.04
2023-03-06T12:31:06.010Z,2.04
2023-03-06T12:34:18.747Z,2.08
2023-03-06T12:37:31.062Z,2.11
2023-03-06T12:40:51.682Z,2.13
2023-03-06T12:43:59.394Z,2.10
2023-03-06T12:47:10.420Z,2.14
2023-03-06T12:50:23.573Z,1.85
2023-03-06T12:53:28.062Z,1.85
2023-03-06T12:56:34.119Z,2.01
2023-03-06T12:59:39.309Z,2.02
2023-03-06T13:03:06.649Z,1.98
2023-03-06T13:06:25.581Z,1.98
2023-03-06T13:09:56.842Z,1.89
2023-03-06T13:13:05.156Z,1.91
2023-03-06T13:16:21.569Z,1.90
2023-03-06T13:19:27.648Z,1.90
2023-03-06T13:22:30.045Z,1.73
2023-03-06T13:25:32.747Z,1.81
2023-03-06T13:28:53.288Z,1.73
2023-03-06T13:32:06.179Z,1.46
2023-03-06T13:35:32.257Z,1.39
2023-03-06T13:38:53.160Z,1.44
2023-03-06T13:42:03.373Z,1.47
2023-03-06T13:45:15.685Z,1.45
2023-03-06T13:48:47.672Z,1.38
2023-03-06T13:52:19.520Z,1.43
2023-03-06T13:55:50.530Z,1.50
2023-03-06T13:59:14.329Z,1.53
2023-03-06T14:02:37.399Z,1.38
2023-03-06T14:05:48.729Z,1.39
2023-03-06T14:08:51.248Z,1.37
2023-03-06T14:12:02.424Z,1.21
2023-03-06T14:15:16.417Z,1.34
2023-03-06T14:18:40.009Z,1.44
2023-03-06T14:21:51.228Z,1.59
2023-03-06T14:25:00.760Z,1.64
2023-03-06T14:28:13.545Z,1.90
2023-03-06T14:31:21.318Z,1.91
2023-03-06T14:34:25.206Z,1.91
2023-03-06T14:37:29.125Z,1.78
2023-03-06T14:40:44.071Z,1.67
2023-03-06T14:43:46.165Z,1.39
2023-03-06T14:46:50.816Z,1.41
2023-03-06T14:50:30.394Z,1.28
2023-03-06T14:53:34.251Z,1.15
2023-03-06T14:56:42.085Z,1.17
2023-03-06T14:59:58.746Z,1.18
2023-03-06T15:03:01.347Z,1.06
2023-03-06T15:06:08.892Z,0.90
2023-03-06T15:09:25.547Z,0.90
2023-03-06T15:12:27.358Z,0.88
2023-03-06T15:15:32.662Z,0.83
2023-03-06T15:18:39.040Z,0.74
2023-03-06T15:21:41.057Z,0.75
2023-03-06T15:24:43.004Z,0.69
2023-03-06T15:27:56.914Z,0.67
2023-03-06T15:31:23.522Z,0.57
2023-03-06T15:34:25.692Z,0.53
2023-03-06T15:37:28.967Z,0.51
2023-03-06T15:40:31.981Z,0.47
2023-03-06T15:43:42.238Z,0.40
2023-03-06T15:46:44.358Z,0.43
2023-03-06T15:49:46.461Z,0.40
2023-03-06T15:52:49.518Z,0.33
2023-03-06T15:55:53.267Z,0.23
2023-03-06T15:58:56.400Z,0.23
2023-03-06T16:02:02.600Z,0.23
2023-03-06T16:05:17.661Z,0.22
2023-03-06T16:08:19.839Z,0.14
2023-03-06T16:11:41.920Z,0.06
2023-03-06T16:14:49.071Z,0.05
2023-03-06T16:17:56.146Z,0.01
2023-03-06T16:20:59.112Z,-0.02
2023-03-06T16:24:00.929Z,-0.04
2023-03-06T16:27:03.188Z,-0.04
2023-03-06T16:30:05.591Z,-0.08
2023-03-06T16:33:10.655Z,-0.10
2023-03-06T16:36:14.831Z,-0.08
2023-03-06T16:39:22.344Z,-0.08
2023-03-06T16:42:24.253Z,-0.10
2023-03-06T16:45:26.616Z,-0.10
2023-03-06T16:48:28.514Z,-0.14
2023-03-06T16:51:33.373Z,-0.13
2023-03-06T16:54:35.166Z,-0.13
2023-03-06T16:57:37.062Z,-0.14
2023-03-06T17:00:41.296Z,-0.17
2023-03-06T17:03:43.416Z,-0.21
2023-03-06T17:06:47.680Z,-0.22
2023-03-06T17:09:50.583Z,-0.24
2023-03-06T17:12:52.461Z,-0.24
2023-03-06T17:15:59.527Z,-0.29
2023-03-06T17:19:02.513Z,-0.36
2023-03-06T17:22:04.456Z,-0.41
2023-03-06T17:25:09.298Z,-0.45
2023-03-06T17:28:11.455Z,-0.53
2023-03-06T17:31:18.868Z,-0.56
2023-03-06T17:34:22.077Z,-0.61
2023-03-06T17:37:25.567Z,-0.68
2023-03-06T17:40:30.577Z,-0.71
2023-03-06T17:43:32.625Z,-0.74
2023-03-06T17:46:36.906Z,-0.75
2023-03-06T17:49:38.805Z,-0.82
2023-03-06T17:52:43.575Z,-0.84
2023-03-06T17:55:45.562Z,-0.87
2023-03-06T17:58:49.934Z,-0.87
2023-03-06T18:01:51.825Z,-0.87
2023-03-06T18:04:58.744Z,-0.84
2023-03-06T18:08:00.687Z,-0.84
2023-03-06T18:11:04.431Z,-0.85
2023-03-06T18:14:06.323Z,-0.84
2023-03-06T18:17:08.258Z,-0.84
2023-03-06T18:20:12.887Z,-0.83
2023-03-06T18:23:14.815Z,-0.84
2023-03-06T18:26:24.158Z,-0.83
2023-03-06T18:29:28.285Z,-0.82
2023-03-06T18:32:30.236Z,-0.82
2023-03-06T18:35:36.018Z,-0.78
2023-03-06T18:38:45.728Z,-0.76
2023-03-06T18:41:47.860Z,-0.76
2023-03-06T18:44:49.764Z,-0.73
2023-03-06T18:47:51.741Z,-0.70
2023-03-06T18:50:53.725Z,-0.70
2023-03-06T18:54:00.371Z,-0.67
2023-03-06T18:57:05.124Z,-0.66
2023-03-06T19:00:08.273Z,-0.61
2023-03-06T19:03:13.563Z,-0.59
2023-03-06T19:06:21.349Z,-0.56
2023-03-06T19:09:23.239Z,-0.55
2023-03-06T19:12:25.065Z,-0.54
2023-03-06T19:15:26.916Z,-0.51
2023-03-06T19:18:31.857Z,-0.51
2023-03-06T19:21:33.787Z,-0.50
2023-03-06T19:24:35.696Z,-0.48
2023-03-06T19:27:39.988Z,-0.44
2023-03-06T19:30:41.897Z,-0.43
2023-03-06T19:33:44.096Z,-0.41
2023-03-06T19:36:45.877Z,-0.38
2023-03-06T19:39:47.720Z,-0.37
2023-03-06T19:42:50.334Z,-0.37
2023-03-06T19:45:52.277Z,-0.37
2023-03-06T19:48:59.161Z,-0.37
2023-03-06T19:52:01.558Z,-0.34
2023-03-06T19:55:03.692Z,-0.34
2023-03-06T19:58:05.999Z,-0.34
2023-03-06T20:01:11.230Z,-0.33
2023-03-06T20:04:13.144Z,-0.33
2023-03-06T20:07:15.043Z,-0.29
2023-03-06T20:10:17.413Z,-0.28
2023-03-06T20:13:19.268Z,-0.31
2023-03-06T20:16:21.151Z,-0.30
2023-03-06T20:19:22.999Z,-0.27
2023-03-06T20:22:25.226Z,-0.25
2023-03-06T20:25:27.101Z,-0.25
2023-03-06T20:28:28.987Z,-0.25
2023-03-06T20:31:31.220Z,-0.25
2023-03-06T20:34:33.215Z,-0.25
2023-03-06T20:37:35.155Z,-0.23
2023-03-06T20:40:42.432Z,-0.22
2023-03-06T20:43:44.584Z,-0.22
2023-03-06T20:46:49.939Z,-0.21
2023-03-06T20:49:51.838Z,-0.19
2023-03-06T20:52:58.484Z,-0.17
2023-03-06T20:56:00.314Z,-0.16
2023-03-06T20:59:03.232Z,-0.14
2023-03-06T21:02:09.732Z,-0.15
2023-03-06T21:05:11.716Z,-0.14
2023-03-06T21:08:14.583Z,-0.14
2023-03-06T21:11:18.459Z,-0.13
2023-03-06T21:14:20.348Z,-0.14
2023-03-06T21:17:22.158Z,-0.13
2023-03-06T21:20:24.438Z,-0.13
2023-03-06T21:23:26.351Z,-0.13
2023-03-06T21:26:30.144Z,-0.12
2023-03-06T21:29:32.112Z,-0.12
2023-03-06T21:32:36.674Z,-0.12
2023-03-06T21:35:40.313Z,-0.10
2023-03-06T21:38:44.809Z,-0.14
2023-03-06T21:41:46.706Z,-0.14
2023-03-06T21:44:51.003Z,-0.18
2023-03-06T21:47:55.705Z,-0.20
2023-03-06T21:51:05.020Z,-0.18
2023-03-06T21:54:07.247Z,-0.21
2023-03-06T21:57:09.088Z,-0.19
2023-03-06T22:00:12.939Z,-0.19
2023-03-06T22:03:14.851Z,-0.19
2023-03-06T22:06:31.414Z,-0.20
2023-03-06T22:09:36.076Z,-0.19
2023-03-06T22:12:43.537Z,-0.17
2023-03-06T22:15:55.203Z,-0.19
2023-03-06T22:18:57.154Z,-0.20
2023-03-06T22:21:59.020Z,-0.20
2023-03-06T22:25:00.870Z,-0.19
2023-03-06T22:28:05.311Z,-0.18
2023-03-06T22:31:15.641Z,-0.17
2023-03-06T22:34:17.865Z,-0.17
2023-03-06T22:37:21.988Z,-0.16
2023-03-06T22:40:24.213Z,-0.14
2023-03-06T22:43:27.578Z,-0.13
2023-03-06T22:46:30.463Z,-0.16
2023-03-06T22:49:32.770Z,-0.14
2023-03-06T22:52:37.055Z,-0.13
2023-03-06T22:55:38.871Z,-0.12
2023-03-06T22:58:40.913Z,-0.12
2023-03-06T23:01:43.955Z,-0.12
2023-03-06T23:04:48.503Z,-0.15
2023-03-06T23:07:51.301Z,-0.09
2023-03-06T23:10:53.245Z,-0.08
2023-03-06T23:14:16.615Z,-0.08
2023-03-06T23:17:39.227Z,-0.14
2023-03-06T23:21:01.905Z,-0.15
2023-03-06T23:24:22.599Z,-0.16
2023-03-06T23:27:24.462Z,-0.20
2023-03-06T23:30:26.679Z,-0.22
2023-03-06T23:33:28.629Z,-0.25
2023-03-06T23:36:31.259Z,-0.29
2023-03-06T23:39:33.743Z,-0.36
2023-03-06T23:42:35.783Z,-0.41
2023-03-06T23:45:37.671Z,-0.41
2023-03-06T23:48:40.893Z,-0.42
2023-03-06T23:51:42.794Z,-0.45
2023-03-06T23:54:44.622Z,-0.47
2023-03-06T23:57:46.621Z,-0.47
